M/T Pazar — TCMC — position and weather

sailwx.info

Track history (hours):
 
Tides and Currents Weather Stations Pressure Air Temp Water Temp Dewpoint Dewpoint Depression Visibility Wind Speed Wind Dir Waves Ship Positions

M/T Pazar

Last reported at 2014-Oct-23 21:08 UTC. Time now 2014-Oct-25 04:23 UTC.
Position N 44°22' E 035°29'.

Length 85 m; draft 4 m.

Type: Ship (hazmat cat B). MMSI: 271000251.

Date/timePositionNaut miles runAvg speedWind from/ knotsBaromVisibWave heightAir tempDewpointWater temp
2014-Oct-23 21:08N 44°22' E 035°29'7 9.9
2014-Oct-23 20:24N 44°18' E 035°20'3010.4
2014-Oct-23 17:33N 44°02' E 034°45'1010.5
2014-Oct-23 16:33N 43°57' E 034°33'1110.5
2014-Oct-23 15:33N 43°51' E 034°21'1410.6
2014-Oct-23 14:12N 43°43' E 034°05'910.8
2014-Oct-23 13:21N 43°37' E 033°54'24111.5
2014-Oct-22 16:21N 41°22' E 029°23'2910.5
2014-Oct-22 13:33N 40°59' E 028°60'5 0.4
2014-Oct-22 00:22N 40°58' E 028°53'0 0.0
2014-Oct-21 23:16N 40°58' E 028°53'0 0.1
2014-Oct-21 22:10N 40°58' E 028°53'0 0.0
2014-Oct-21 21:22N 40°58' E 028°53'0 0.0
2014-Oct-21 20:22N 40°58' E 028°53'0 0.0
2014-Oct-21 19:28N 40°58' E 028°53'0 0.0
2014-Oct-21 17:22N 40°58' E 028°53'0 0.0
2014-Oct-21 16:28N 40°58' E 028°53'0 0.0
2014-Oct-21 13:28N 40°58' E 028°53'0 0.0
2014-Oct-21 08:27N 40°58' E 028°53'0 0.1
2014-Oct-21 05:05N 40°58' E 028°54'0 0.0
2014-Oct-21 00:05N 40°58' E 028°54'0 0.1
2014-Oct-20 23:29N 40°58' E 028°54'0 0.0
2014-Oct-20 16:11N 40°58' E 028°54'0 0.0
2014-Oct-20 12:05N 40°58' E 028°54'0 0.5
2014-Oct-20 11:08N 40°58' E 028°53'610.3
2014-Oct-20 10:33N 40°52' E 028°50'269 8.3
2014-Oct-19 02:10N 37°52' E 024°32'1910.1
2014-Oct-19 00:14N 37°39' E 024°14'1013.0
2014-Oct-18 23:28N 37°32' E 024°04'8 8.1
2014-Oct-18 22:30N 37°24' E 024°03'48 9.7
2014-Oct-18 17:33N 36°44' E 023°29'  
Track history (hours):
 
Tides and Currents Weather Stations Pressure Air Temp Water Temp Dewpoint Dewpoint Depression Visibility Wind Speed Wind Dir Waves Ship Positions

M/T Pazar

Last reported at 2014-Oct-23 21:08 UTC. Time now 2014-Oct-25 04:23 UTC.
Position N 44°22' E 035°29'.

Length 85 m; draft 4 m.

Type: Ship (hazmat cat B). MMSI: 271000251.

Date/timePositionNaut miles runAvg speedWind from/ knotsBaromVisibWave heightAir tempDewpointWater temp
2014-Oct-23 21:08N 44°22' E 035°29'7 9.9
2014-Oct-23 20:24N 44°18' E 035°20'3010.4
2014-Oct-23 17:33N 44°02' E 034°45'1010.5
2014-Oct-23 16:33N 43°57' E 034°33'1110.5
2014-Oct-23 15:33N 43°51' E 034°21'1410.6
2014-Oct-23 14:12N 43°43' E 034°05'910.8
2014-Oct-23 13:21N 43°37' E 033°54'24111.5
2014-Oct-22 16:21N 41°22' E 029°23'2910.5
2014-Oct-22 13:33N 40°59' E 028°60'5 0.4
2014-Oct-22 00:22N 40°58' E 028°53'0 0.0
2014-Oct-21 23:16N 40°58' E 028°53'0 0.1
2014-Oct-21 22:10N 40°58' E 028°53'0 0.0
2014-Oct-21 21:22N 40°58' E 028°53'0 0.0
2014-Oct-21 20:22N 40°58' E 028°53'0 0.0
2014-Oct-21 19:28N 40°58' E 028°53'0 0.0
2014-Oct-21 17:22N 40°58' E 028°53'0 0.0
2014-Oct-21 16:28N 40°58' E 028°53'0 0.0
2014-Oct-21 13:28N 40°58' E 028°53'0 0.0
2014-Oct-21 08:27N 40°58' E 028°53'0 0.1
2014-Oct-21 05:05N 40°58' E 028°54'0 0.0
2014-Oct-21 00:05N 40°58' E 028°54'0 0.1
2014-Oct-20 23:29N 40°58' E 028°54'0 0.0
2014-Oct-20 16:11N 40°58' E 028°54'0 0.0
2014-Oct-20 12:05N 40°58' E 028°54'0 0.5
2014-Oct-20 11:08N 40°58' E 028°53'610.3
2014-Oct-20 10:33N 40°52' E 028°50'269 8.3
2014-Oct-19 02:10N 37°52' E 024°32'1910.1
2014-Oct-19 00:14N 37°39' E 024°14'1013.0
2014-Oct-18 23:28N 37°32' E 024°04'8 8.1
2014-Oct-18 22:30N 37°24' E 024°03'48 9.7
2014-Oct-18 17:33N 36°44' E 023°29'  

Dump ship's entire track history